• Join FlightAware (Why Join?)
  • Login
  • US Flag 
05:33PM EDT


 

Airport Tracker/Info


-or-


 

Live Flight TrackerFlight Track Log ✈ WIG7117 ✈ 10-Jun-2013 ✈ KALB - KSYR

Flight Track Log - Related Links

Times and Time Zones

All times are in EDT time to prevent confusion due to time zone crossing. See the WIG7117 flight status page for this flight to view local times or setup timezone preferences in your user account.

Time Position Orientation Groundspeed Altitude Reporting Facility
EDT Latitude Longitude Course Direction KTS MPH feet Rate Location/Type
10:33PM 42.7464 -73.8056 216° Southwest 71 82 900  Level Boston Center
10:34PM 42.7297 -73.8222 216° Southwest 91 105 2,000 1,200 Climbing Boston Center
10:35PM 42.7394 -73.8706 285° West 129 148 3,200 1,140 Climbing Boston Center
10:36PM 42.7494 -73.9131 288° West 136 157 4,400 1,200 Climbing Boston Center
10:37PM 42.7550 -73.9558 280° West 117 135 5,700 1,140 Climbing Boston Center
10:38PM 42.7628 -73.9928 286° West 96 110 6,800 1,020 Climbing Boston Center
10:39PM 42.7686 -74.0325 281° West 103 119 7,800 540 Climbing Boston Center
10:40PM 42.7764 -74.0750 284° West 123 142 8,000 60 Climbing Boston Center
10:41PM 42.7858 -74.1347 282° West 155 178 8,000  Level Boston Center
10:42PM 42.7975 -74.1917 286° West 151 174 8,000  Level Boston Center
10:43PM 42.8050 -74.2428 281° West 148 170 8,000 -60 Level Boston Center
10:44PM 42.8106 -74.2825 281° West 149 171 7,900 -60 Descending Boston Center
10:45PM 42.8200 -74.3450 282° West 149 171 7,900  Level Boston Center
10:46PM 42.8317 -74.4050 285° West 151 174 7,900  Level Boston Center
10:47PM 42.8411 -74.4592 283° West 151 174 7,900  Level Boston Center
10:48PM 42.8525 -74.5189 285° West 154 177 7,900  Level Boston Center
10:49PM 42.8617 -74.5758 282° West 155 178 7,900  Level Boston Center
10:50PM 42.8711 -74.6328 283° West 155 178 7,900  Level Boston Center
10:51PM 42.8803 -74.6956 281° West 154 177 7,900  Level Boston Center
10:52PM 42.8897 -74.7525 283° West 153 176 7,900  Level Boston Center
10:53PM 42.9008 -74.8125 284° West 156 180 7,900  Level Boston Center
10:54PM 42.9081 -74.8722 279° West 152 175 7,900  Level Boston Center
10:55PM 42.9192 -74.9294 285° West 151 174 7,900  Level Boston Center
10:56PM 42.9306 -74.9811 287° West 151 174 7,900  Level Boston Center
10:57PM 42.9375 -75.0408 279° West 151 174 7,900  Level Boston Center
10:58PM 42.9489 -75.0953 286° West 150 173 7,900  Level Boston Center
10:59PM 42.9581 -75.1494 283° West 151 174 7,900  Level Boston Center
11:01PM 42.9669 -75.2067 282° West 152 175 7,900  Level Boston Center
11:02PM 42.9761 -75.2611 283° West 153 176 7,900  Level Boston Center
11:03PM 42.9828 -75.3239 278° West 153 176 7,900  Level Boston Center
11:03PM 42.9964 -75.3700 292° West 154 177 8,000  Climbing Boston Center
11:04PM 43.0031 -75.4297 279° West 153 176 7,900 -60 Descending Boston Center
11:05PM 43.0122 -75.4786 284° West 151 174 7,900  Level Boston Center
11:06PM 43.0211 -75.5358 282° West 151 174 7,900  Level Boston Center
11:07PM 43.0319 -75.5961 284° West 153 176 8,000  Climbing Boston Center
11:08PM 43.0406 -75.6589 281° West 156 180 8,000  Level Boston Center
11:10PM 43.0494 -75.7164 282° West 157 181 8,000  Level Boston Center
11:10PM 43.0519 -75.7703 274° West 155 178 8,000  Level Boston Center
11:12PM 43.0564 -75.8361 275° West 155 178 8,000  Level Boston Center
11:13PM 43.0586 -75.8958 273° West 157 181 8,000  Level Boston Center
11:14PM 43.0631 -75.9586 276° West 158 182 8,000 -300 Level Boston Center
11:14PM 43.0678 -76.0072 278° West 158 182 7,500 -1,800 Descending Boston Center
11:15PM 43.0722 -76.0672 276° West 159 183 4,600 -2,400 Descending Boston Center
11:16PM 43.0725 -76.1214 270° West 150 173 2,700 -1,380 Descending Boston Center
11:17PM 43.0853 -76.1733 289° West 165 190 1,900 -840 Descending Boston Center
11:19PM 43.0926 -76.1369 75° East  Level FlightAware Approximate
11:26PM 43.1000 -76.1000 270° West  Level FlightAware Approximate
11:27PM 43.1112 -76.1063 270° West  Level Estimated
11:28PM 43.1112 -76.1063 270° West  Level Estimated
11:29PM 43.1112 -76.1063 270° West  Level Estimated
11:30PM 43.1112 -76.1063 270° West  Level Estimated
11:31PM 43.1112 -76.1063 270° West  Level Estimated